createdAt,value
2019-02-12T00:00:54.019Z,98746.00
2019-02-12T00:03:23.390Z,98741.00
2019-02-12T00:05:52.799Z,98748.00
2019-02-12T00:08:22.152Z,98762.00
2019-02-12T00:10:51.519Z,98772.00
2019-02-12T00:13:20.895Z,98774.00
2019-02-12T00:15:50.263Z,98771.00
2019-02-12T00:18:19.792Z,98776.00
2019-02-12T00:20:49.178Z,98784.00
2019-02-12T00:23:18.538Z,98796.00
2019-02-12T00:25:47.897Z,98782.00
2019-02-12T00:28:17.710Z,98798.00
2019-02-12T00:30:47.063Z,98796.00
2019-02-12T00:33:16.422Z,98796.00
2019-02-12T00:35:45.815Z,98788.00
2019-02-12T00:38:15.171Z,98800.00
2019-02-12T00:40:44.537Z,98782.00
2019-02-12T00:43:13.922Z,98801.00
2019-02-12T00:45:43.284Z,98805.00
2019-02-12T00:48:12.642Z,98805.00
2019-02-12T00:50:42.666Z,98817.00
2019-02-12T00:53:12.022Z,98815.00
2019-02-12T00:55:41.406Z,98826.00
2019-02-12T00:58:10.789Z,98826.00
2019-02-12T01:00:41.214Z,98837.00
2019-02-12T01:03:10.581Z,98826.00
2019-02-12T01:05:39.961Z,98842.00
2019-02-12T01:08:09.379Z,98831.00
2019-02-12T01:10:38.743Z,98838.00
2019-02-12T01:13:08.676Z,98840.00
2019-02-12T01:15:38.113Z,98836.00
2019-02-12T01:18:07.470Z,98845.00
2019-02-12T01:20:36.862Z,98842.00
2019-02-12T01:23:06.285Z,98839.00
2019-02-12T01:25:35.667Z,98825.00
2019-02-12T01:28:05.031Z,98828.00
2019-02-12T01:30:34.397Z,98837.00
2019-02-12T01:33:03.849Z,98829.00
2019-02-12T01:35:33.725Z,98839.00
2019-02-12T01:38:03.111Z,98826.00
2019-02-12T01:40:32.491Z,98834.00
2019-02-12T01:43:01.860Z,98826.00
2019-02-12T01:45:31.237Z,98832.00
2019-02-12T01:48:00.619Z,98826.00
2019-02-12T01:50:30.011Z,98833.00
2019-02-12T01:52:59.366Z,98822.00
2019-02-12T02:14:17.331Z,98848.00
2019-02-12T02:16:46.674Z,98853.00
2019-02-12T02:19:16.024Z,98855.00
2019-02-12T02:21:45.402Z,98850.00
2019-02-12T02:24:14.737Z,98848.00
2019-02-12T02:26:44.102Z,98839.00
2019-02-12T02:29:13.496Z,98834.00
2019-02-12T02:31:42.858Z,98848.00
2019-02-12T02:34:12.207Z,98849.00
2019-02-12T02:36:41.628Z,98834.00
2019-02-12T02:39:10.997Z,98843.00
2019-02-12T02:41:40.373Z,98858.00
2019-02-12T02:44:09.772Z,98844.00
2019-02-12T02:46:39.123Z,98846.00
2019-02-12T02:49:08.467Z,98853.00
2019-02-12T02:51:37.883Z,98870.00
2019-02-12T02:54:07.235Z,98852.00
2019-02-12T02:56:36.642Z,98854.00
2019-02-12T02:59:06.407Z,98853.00
2019-02-12T03:01:35.786Z,98867.00
2019-02-12T03:04:05.140Z,98862.00
2019-02-12T03:06:34.511Z,98873.00
2019-02-12T03:09:06.308Z,98868.00
2019-02-12T03:11:35.664Z,98866.00
2019-02-12T03:14:05.096Z,98878.00
2019-02-12T03:16:34.696Z,98876.00
2019-02-12T03:19:04.070Z,98872.00
2019-02-12T03:21:33.462Z,98872.00
2019-02-12T03:24:02.824Z,98883.00
2019-02-12T03:26:32.183Z,98890.00
2019-02-12T03:29:01.673Z,98881.00
2019-02-12T03:31:31.010Z,98874.00
2019-02-12T03:34:00.388Z,98876.00
2019-02-12T03:36:29.816Z,98871.00
2019-02-12T03:38:59.179Z,98887.00
2019-02-12T03:41:28.545Z,98893.00
2019-02-12T03:43:58.225Z,98889.00
2019-02-12T03:46:27.591Z,98879.00
2019-02-12T03:48:56.979Z,98896.00
2019-02-12T03:51:26.437Z,98890.00
2019-02-12T03:53:55.806Z,98901.00
2019-02-12T03:56:25.175Z,98897.00
2019-02-12T03:58:54.556Z,98909.00
2019-02-12T04:01:23.902Z,98897.00
2019-02-12T04:03:53.594Z,98892.00
2019-02-12T04:06:23.349Z,98902.00
2019-02-12T04:08:52.703Z,98897.00
2019-02-12T04:11:24.288Z,98875.00
2019-02-12T04:13:53.179Z,98889.00
2019-02-12T04:16:22.570Z,98882.00
2019-02-12T04:18:53.036Z,98881.00
2019-02-12T04:21:22.410Z,98884.00
2019-02-12T04:23:51.774Z,98882.00
2019-02-12T04:26:21.124Z,98881.00
2019-02-12T04:28:50.521Z,98872.00
2019-02-12T04:31:19.873Z,98894.00
2019-02-12T04:33:49.224Z,98884.00
2019-02-12T04:36:18.615Z,98872.00
2019-02-12T04:38:47.976Z,98882.00
2019-02-12T04:41:17.348Z,98877.00
2019-02-12T04:43:46.740Z,98889.00
2019-02-12T04:46:16.103Z,98887.00
2019-02-12T04:48:45.452Z,98886.00
2019-02-12T04:51:15.336Z,98883.00
2019-02-12T04:53:44.696Z,98881.00
2019-02-12T04:56:14.092Z,98899.00
2019-02-12T04:58:43.451Z,98886.00
2019-02-12T05:01:12.817Z,98897.00
2019-02-12T05:03:42.168Z,98887.00
2019-02-12T05:06:11.543Z,98883.00
2019-02-12T05:09:13.527Z,98897.00
2019-02-12T05:11:48.089Z,98904.00
2019-02-12T05:14:17.463Z,98898.00
2019-02-12T05:16:46.834Z,98902.00
2019-02-12T05:19:16.769Z,98909.00
2019-02-12T05:21:46.147Z,98903.00
2019-02-12T05:24:15.532Z,98905.00
2019-02-12T05:26:44.922Z,98911.00
2019-02-12T05:29:14.278Z,98916.00
2019-02-12T05:31:43.723Z,98915.00
2019-02-12T05:34:13.150Z,98917.00
2019-02-12T05:36:42.527Z,98909.00
2019-02-12T05:39:11.910Z,98923.00
2019-02-12T05:41:41.322Z,98922.00
2019-02-12T05:44:30.032Z,98929.00
2019-02-12T05:46:59.396Z,98924.00
2019-02-12T05:49:28.786Z,98901.00
2019-02-12T05:51:58.205Z,98910.00
2019-02-12T05:54:27.566Z,98913.00
2019-02-12T05:56:56.930Z,98921.00
2019-02-12T05:59:26.371Z,98916.00
2019-02-12T06:01:55.748Z,98915.00
2019-02-12T06:04:25.099Z,98919.00
2019-02-12T06:06:54.486Z,98908.00
2019-02-12T06:09:23.863Z,98917.00
2019-02-12T06:11:53.227Z,98902.00
2019-02-12T06:14:22.603Z,98918.00
2019-02-12T06:16:52.034Z,98928.00
2019-02-12T06:19:21.379Z,98929.00
2019-02-12T06:21:51.879Z,98925.00
2019-02-12T06:24:21.255Z,98940.00
2019-02-12T06:26:50.633Z,98938.00
2019-02-12T06:29:19.993Z,98926.00
2019-02-12T06:31:49.383Z,98943.00
2019-02-12T06:34:18.753Z,98941.00
2019-02-12T06:36:48.113Z,98943.00
2019-02-12T06:39:17.503Z,98946.00
2019-02-12T06:41:46.867Z,98952.00
2019-02-12T06:44:16.223Z,98948.00
2019-02-12T06:46:45.584Z,98960.00
2019-02-12T06:49:14.925Z,98944.00
2019-02-12T06:51:44.297Z,98947.00
2019-02-12T06:54:13.731Z,98951.00
2019-02-12T06:56:43.088Z,98972.00
2019-02-12T06:59:12.463Z,98962.00
2019-02-12T07:01:41.846Z,98957.00
2019-02-12T07:04:11.289Z,98981.00
2019-02-12T07:06:51.050Z,98984.00
2019-02-12T07:09:25.009Z,98982.00
2019-02-12T07:11:59.010Z,98988.00
2019-02-12T07:14:32.974Z,98985.00
2019-02-12T07:17:13.040Z,98986.00
2019-02-12T07:19:49.631Z,98993.00
2019-02-12T07:22:26.414Z,98982.00
2019-02-12T07:25:00.913Z,98985.00
2019-02-12T07:27:37.651Z,98999.00
2019-02-12T07:30:11.787Z,98992.00
2019-02-12T07:32:44.677Z,98997.00
2019-02-12T07:35:18.680Z,98997.00
2019-02-12T07:38:01.615Z,98993.00
2019-02-12T07:40:38.352Z,99014.00
2019-02-12T07:43:24.158Z,99013.00
2019-02-12T07:46:00.773Z,98999.00
2019-02-12T07:48:53.206Z,99029.00
2019-02-12T07:51:27.173Z,99025.00
2019-02-12T07:54:01.157Z,99040.00
2019-02-12T07:56:35.261Z,99026.00
2019-02-12T07:59:09.243Z,99043.00
2019-02-12T08:01:52.059Z,99035.00
2019-02-12T08:04:32.508Z,99048.00
2019-02-12T08:07:09.263Z,99062.00
2019-02-12T08:09:45.909Z,99054.00
2019-02-12T08:12:19.896Z,99055.00
2019-02-12T08:14:53.914Z,99059.00
2019-02-12T08:17:30.578Z,99066.00
2019-02-12T08:20:12.707Z,99075.00
2019-02-12T08:22:46.705Z,99080.00
2019-02-12T08:25:23.405Z,99089.00
2019-02-12T08:27:58.446Z,99094.00
2019-02-12T08:30:35.532Z,99073.00
2019-02-12T08:33:12.480Z,99093.00
2019-02-12T08:35:57.057Z,99089.00
2019-02-12T08:38:30.514Z,99079.00
2019-02-12T08:41:07.043Z,99094.00
2019-02-12T08:43:58.448Z,99098.00
2019-02-12T08:46:30.570Z,99089.00
2019-02-12T08:49:07.043Z,99101.00
2019-02-12T08:51:44.267Z,99104.00
2019-02-12T08:54:18.318Z,99095.00
2019-02-12T08:56:58.260Z,99099.00
2019-02-12T08:59:32.247Z,99094.00
2019-02-12T09:02:07.499Z,99107.00
2019-02-12T09:04:53.438Z,99117.00
2019-02-12T09:07:52.998Z,99106.00
2019-02-12T09:10:29.526Z,99105.00
2019-02-12T09:13:03.522Z,99114.00
2019-02-12T09:15:40.495Z,99111.00
2019-02-12T09:18:14.498Z,99113.00
2019-02-12T09:20:51.275Z,99110.00
2019-02-12T09:23:25.663Z,99124.00
2019-02-12T09:25:59.642Z,99114.00
2019-02-12T09:28:33.659Z,99131.00
2019-02-12T09:31:08.836Z,99129.00
2019-02-12T09:33:42.832Z,99122.00
2019-02-12T09:36:22.196Z,99133.00
2019-02-12T09:38:56.246Z,99136.00
2019-02-12T09:41:30.215Z,99141.00
2019-02-12T09:44:00.485Z,99138.00
2019-02-12T09:46:37.206Z,99142.00
2019-02-12T09:49:11.227Z,99131.00
2019-02-12T09:51:47.796Z,99133.00
2019-02-12T09:54:25.124Z,99133.00
2019-02-12T09:56:59.140Z,99132.00
2019-02-12T09:59:35.877Z,99139.00
2019-02-12T10:02:15.588Z,99142.00
2019-02-12T10:04:49.568Z,99136.00
2019-02-12T10:07:32.527Z,99147.00
2019-02-12T10:10:12.774Z,99143.00
2019-02-12T10:12:46.734Z,99137.00
2019-02-12T10:15:23.646Z,99140.00
2019-02-12T10:18:00.081Z,99155.00
2019-02-12T10:20:34.082Z,99149.00
2019-02-12T10:23:10.621Z,99152.00
2019-02-12T10:25:40.083Z,99161.00
2019-02-12T10:28:26.929Z,99163.00
2019-02-12T10:31:00.902Z,99170.00
2019-02-12T10:33:30.889Z,99165.00
2019-02-12T10:36:00.293Z,99165.00
2019-02-12T10:38:29.646Z,99166.00
2019-02-12T10:40:59.058Z,99176.00
2019-02-12T10:43:28.488Z,99166.00
2019-02-12T10:45:57.840Z,99165.00
2019-02-12T10:48:27.266Z,99177.00
2019-02-12T10:50:56.691Z,99172.00
2019-02-12T10:53:26.049Z,99169.00
2019-02-12T10:55:55.503Z,99173.00
2019-02-12T10:58:24.854Z,99167.00
2019-02-12T11:00:54.306Z,99184.00
2019-02-12T11:03:23.685Z,99183.00
2019-02-12T11:05:53.708Z,99187.00
2019-02-12T11:08:23.089Z,99177.00
2019-02-12T11:10:52.472Z,99187.00
2019-02-12T11:13:21.917Z,99166.00
2019-02-12T11:15:51.285Z,99168.00
2019-02-12T11:18:20.719Z,99180.00
2019-02-12T11:20:50.115Z,99184.00
2019-02-12T11:23:19.522Z,99167.00
2019-02-12T11:25:48.887Z,99173.00
2019-02-12T11:28:18.734Z,99173.00
2019-02-12T11:30:48.086Z,99169.00
2019-02-12T11:33:17.456Z,99175.00
2019-02-12T11:35:47.995Z,99169.00
2019-02-12T11:38:17.340Z,99151.00
2019-02-12T11:40:46.698Z,99164.00
2019-02-12T11:43:16.075Z,99170.00
2019-02-12T11:45:45.436Z,99168.00
2019-02-12T11:48:14.783Z,99162.00
2019-02-12T11:50:44.829Z,99164.00
2019-02-12T11:53:14.200Z,99164.00
2019-02-12T11:55:43.571Z,99154.00
2019-02-12T11:58:12.944Z,99164.00
2019-02-12T12:00:43.956Z,99155.00
2019-02-12T12:03:13.326Z,99152.00
2019-02-12T12:05:42.713Z,99166.00
2019-02-12T12:08:12.056Z,99159.00
2019-02-12T12:10:41.430Z,99162.00
2019-02-12T12:13:11.231Z,99167.00
2019-02-12T12:15:40.605Z,99154.00
2019-02-12T12:18:09.960Z,99149.00
2019-02-12T12:20:39.331Z,99175.00
2019-02-12T12:23:08.677Z,99163.00
2019-02-12T12:25:38.035Z,99145.00
2019-02-12T12:28:07.396Z,99159.00
2019-02-12T12:30:36.762Z,99151.00
2019-02-12T12:33:06.111Z,99147.00
2019-02-12T12:35:35.868Z,99157.00
2019-02-12T12:38:05.788Z,99153.00
2019-02-12T12:40:35.140Z,99157.00
2019-02-12T12:43:04.571Z,99147.00
2019-02-12T12:45:33.996Z,99155.00
2019-02-12T12:48:03.381Z,99154.00
2019-02-12T12:50:32.755Z,99153.00
2019-02-12T12:53:02.113Z,99156.00
2019-02-12T12:55:31.502Z,99149.00
2019-02-12T12:58:02.518Z,99152.00
2019-02-12T13:00:31.889Z,99151.00
2019-02-12T13:03:01.258Z,99150.00
2019-02-12T13:05:30.610Z,99148.00
2019-02-12T13:07:59.959Z,99152.00
2019-02-12T13:10:29.319Z,99155.00
2019-02-12T13:12:58.699Z,99161.00
2019-02-12T13:15:28.099Z,99149.00
2019-02-12T13:17:57.441Z,99156.00
2019-02-12T13:20:27.539Z,99161.00
2019-02-12T13:22:59.715Z,99179.00
2019-02-12T13:25:29.071Z,99161.00
2019-02-12T13:27:58.447Z,99158.00
2019-02-12T13:30:27.786Z,99168.00
2019-02-12T13:32:57.147Z,99167.00
2019-02-12T13:35:26.528Z,99148.00
2019-02-12T13:37:55.873Z,99157.00
2019-02-12T13:40:27.325Z,99073.00
2019-02-12T13:42:56.703Z,99146.00
2019-02-12T13:45:26.123Z,99150.00
2019-02-12T13:47:55.482Z,99166.00
2019-02-12T13:50:24.836Z,99168.00
2019-02-12T13:52:54.205Z,99180.00
2019-02-12T13:55:23.544Z,99171.00
2019-02-12T13:57:52.917Z,99185.00
2019-02-12T14:00:22.266Z,99177.00
2019-02-12T14:02:51.623Z,99176.00
2019-02-12T14:05:23.924Z,99177.00
2019-02-12T14:07:53.280Z,99188.00
2019-02-12T14:10:22.623Z,99192.00
2019-02-12T14:12:51.992Z,99177.00
2019-02-12T14:15:21.351Z,99182.00
2019-02-12T14:17:50.711Z,99197.00
2019-02-12T14:20:20.076Z,99199.00
2019-02-12T14:22:49.423Z,99200.00
2019-02-12T14:25:25.276Z,99197.00
2019-02-12T14:27:49.909Z,99195.00
2019-02-12T14:30:22.438Z,99196.00
2019-02-12T14:32:51.966Z,99200.00
2019-02-12T14:35:21.341Z,99198.00
2019-02-12T14:37:50.697Z,99195.00
2019-02-12T14:40:20.047Z,99197.00
2019-02-12T14:42:49.989Z,99196.00
2019-02-12T14:45:20.350Z,99201.00
2019-02-12T14:47:49.735Z,99209.00
2019-02-12T14:50:20.855Z,99196.00
2019-02-12T14:52:50.285Z,99215.00
2019-02-12T14:55:19.662Z,99202.00
2019-02-12T14:57:49.042Z,99208.00
2019-02-12T15:00:20.213Z,99209.00
2019-02-12T15:02:49.615Z,99227.00
2019-02-12T15:05:18.973Z,99216.00
2019-02-12T15:07:48.329Z,99209.00
2019-02-12T15:10:17.676Z,99230.00
2019-02-12T15:12:47.514Z,99227.00
2019-02-12T15:15:16.875Z,99213.00
2019-02-12T15:17:46.204Z,99217.00
2019-02-12T15:20:15.573Z,99202.00
2019-02-12T15:22:44.919Z,99195.00
2019-02-12T15:25:14.342Z,99202.00
2019-02-12T15:27:43.733Z,99211.00
2019-02-12T15:30:15.808Z,99197.00
2019-02-12T15:32:45.179Z,99198.00
2019-02-12T15:35:14.638Z,99202.00
2019-02-12T15:37:43.988Z,99199.00
2019-02-12T15:40:16.348Z,99215.00
2019-02-12T15:42:45.727Z,99201.00
2019-02-12T15:45:19.544Z,99205.00
2019-02-12T15:47:48.907Z,99209.00
2019-02-12T15:50:18.351Z,99204.00
2019-02-12T15:52:47.700Z,99197.00
2019-02-12T15:55:17.068Z,99189.00
2019-02-12T15:57:46.501Z,99189.00
2019-02-12T16:00:20.857Z,99185.00
2019-02-12T16:02:50.487Z,99188.00
2019-02-12T16:05:20.592Z,99191.00
2019-02-12T16:07:49.935Z,99188.00
2019-02-12T16:10:21.264Z,99200.00
2019-02-12T16:12:51.564Z,99208.00
2019-02-12T16:15:24.671Z,99188.00
2019-02-12T16:17:53.668Z,99194.00
2019-02-12T16:20:23.676Z,99205.00
2019-02-12T16:22:53.139Z,99201.00
2019-02-12T16:25:22.482Z,99209.00
2019-02-12T16:27:51.860Z,99205.00
2019-02-12T16:30:22.357Z,99197.00
2019-02-12T16:32:51.718Z,99202.00
2019-02-12T16:35:21.107Z,99210.00
2019-02-12T16:37:50.453Z,99216.00
2019-02-12T16:40:19.812Z,99217.00
2019-02-12T16:42:49.202Z,99207.00
2019-02-12T16:45:25.890Z,99206.00
2019-02-12T16:47:55.966Z,99210.00
2019-02-12T16:50:25.327Z,99222.00
2019-02-12T16:52:56.201Z,99212.00
2019-02-12T16:55:25.650Z,99225.00
2019-02-12T16:57:55.003Z,99217.00
2019-02-12T17:00:24.371Z,99227.00
2019-02-12T17:02:53.859Z,99225.00
2019-02-12T17:05:23.215Z,99239.00
2019-02-12T17:07:52.580Z,99229.00
2019-02-12T17:10:21.962Z,99231.00
2019-02-12T17:12:51.378Z,99239.00
2019-02-12T17:15:20.726Z,99245.00
2019-02-12T17:17:50.100Z,99249.00
2019-02-12T17:20:22.173Z,99248.00
2019-02-12T17:22:51.586Z,99257.00
2019-02-12T17:25:21.301Z,99263.00
2019-02-12T17:27:50.799Z,99270.00
2019-02-12T17:30:20.191Z,99266.00
2019-02-12T17:32:49.554Z,99263.00
2019-02-12T17:35:18.945Z,99277.00
2019-02-12T17:37:48.444Z,99262.00
2019-02-12T17:40:20.280Z,99270.00
2019-02-12T17:42:49.632Z,99276.00
2019-02-12T17:45:19.917Z,99280.00
2019-02-12T17:47:50.129Z,99289.00
2019-02-12T17:50:19.724Z,99292.00
2019-02-12T17:52:49.221Z,99297.00
2019-02-12T17:55:20.145Z,99288.00
2019-02-12T17:57:49.493Z,99298.00
2019-02-12T18:00:21.747Z,99289.00
2019-02-12T18:02:51.634Z,99294.00
2019-02-12T18:05:21.258Z,99281.00
2019-02-12T18:07:52.325Z,99279.00
2019-02-12T18:10:21.830Z,99277.00
2019-02-12T18:12:51.186Z,99282.00
2019-02-12T18:15:20.745Z,99289.00
2019-02-12T18:17:50.120Z,99293.00
2019-02-12T18:20:26.381Z,99286.00
2019-02-12T18:22:50.574Z,99283.00
2019-02-12T18:25:20.013Z,99284.00
2019-02-12T18:27:49.413Z,99284.00
2019-02-12T18:30:19.481Z,99285.00
2019-02-12T18:32:48.875Z,99295.00
2019-02-12T18:35:18.279Z,99296.00
2019-02-12T18:37:47.693Z,99295.00
2019-02-12T18:40:18.540Z,99293.00
2019-02-12T18:42:47.906Z,99306.00
2019-02-12T18:45:21.764Z,99297.00
2019-02-12T18:47:51.184Z,99306.00
2019-02-12T18:50:20.617Z,99295.00
2019-02-12T18:52:50.479Z,99295.00
2019-02-12T18:55:19.873Z,99289.00
2019-02-12T18:57:49.225Z,99295.00
2019-02-12T19:00:21.373Z,99296.00
2019-02-12T19:02:50.751Z,99292.00
2019-02-12T19:05:20.104Z,99285.00
2019-02-12T19:07:49.476Z,99273.00
2019-02-12T19:10:19.374Z,99275.00
2019-02-12T19:12:48.744Z,99275.00
2019-02-12T19:15:20.225Z,99285.00
2019-02-12T19:18:03.469Z,99278.00
2019-02-12T19:20:32.906Z,99275.00
2019-02-12T19:23:02.272Z,99273.00
2019-02-12T19:25:31.732Z,99276.00
2019-02-12T19:28:01.283Z,99266.00
2019-02-12T19:30:30.656Z,99279.00
2019-02-12T19:33:01.757Z,99289.00
2019-02-12T19:35:31.180Z,99276.00
2019-02-12T19:38:00.606Z,99278.00
2019-02-12T19:40:30.096Z,99300.00
2019-02-12T19:42:59.844Z,99281.00
2019-02-12T19:45:29.230Z,99280.00
2019-02-12T19:47:58.946Z,99293.00
2019-02-12T19:50:28.603Z,99292.00
2019-02-12T19:52:57.977Z,99295.00
2019-02-12T19:55:27.680Z,99284.00
2019-02-12T19:57:57.050Z,99286.00
2019-02-12T20:00:26.752Z,99290.00
2019-02-12T20:02:56.159Z,99290.00
2019-02-12T20:05:25.782Z,99289.00
2019-02-12T20:07:55.199Z,99286.00
2019-02-12T20:10:25.238Z,99294.00
2019-02-12T20:12:54.663Z,99280.00
2019-02-12T20:15:24.112Z,99280.00
2019-02-12T20:17:53.482Z,99273.00
2019-02-12T20:20:22.845Z,99277.00
2019-02-12T20:22:52.238Z,99284.00
2019-02-12T20:25:21.684Z,99291.00
2019-02-12T20:27:51.076Z,99297.00
2019-02-12T20:30:20.712Z,99308.00
2019-02-12T20:32:50.833Z,99317.00
2019-02-12T20:35:22.405Z,99313.00
2019-02-12T20:37:52.029Z,99297.00
2019-02-12T20:40:21.507Z,99312.00
2019-02-12T20:42:50.888Z,99299.00
2019-02-12T20:45:20.586Z,99322.00
2019-02-12T20:47:50.058Z,99323.00
2019-02-12T20:50:21.340Z,99323.00
2019-02-12T20:52:50.748Z,99306.00
2019-02-12T20:55:20.154Z,99309.00
2019-02-12T20:57:49.814Z,99317.00
2019-02-12T21:00:21.909Z,99331.00
2019-02-12T21:02:51.288Z,99318.00
2019-02-12T21:05:20.656Z,99321.00
2019-02-12T21:07:50.083Z,99311.00
2019-02-12T21:10:22.745Z,99316.00
2019-02-12T21:12:52.131Z,99311.00
2019-02-12T21:15:24.588Z,99316.00
2019-02-12T21:17:54.102Z,99289.00
2019-02-12T21:20:23.468Z,99296.00
2019-02-12T21:22:52.936Z,99292.00
2019-02-12T21:25:22.354Z,99291.00
2019-02-12T21:27:51.720Z,99287.00
2019-02-12T21:30:24.652Z,99306.00
2019-02-12T21:32:54.060Z,99289.00
2019-02-12T21:35:23.579Z,99305.00
2019-02-12T21:37:52.978Z,99288.00
2019-02-12T21:40:28.058Z,99292.00
2019-02-12T21:42:57.470Z,99300.00
2019-02-12T21:45:26.930Z,99306.00
2019-02-12T21:47:56.927Z,99289.00
2019-02-12T21:50:26.291Z,99308.00
2019-02-12T21:52:55.665Z,99310.00
2019-02-12T21:55:25.051Z,99304.00
2019-02-12T21:57:54.548Z,99325.00
2019-02-12T22:00:25.188Z,99319.00
2019-02-12T22:02:54.701Z,99321.00
2019-02-12T22:05:24.120Z,99330.00
2019-02-12T22:07:53.514Z,99338.00
2019-02-12T22:10:31.031Z,99345.00
2019-02-12T22:13:00.395Z,99323.00
2019-02-12T22:15:29.927Z,99332.00
2019-02-12T22:17:59.330Z,99326.00
2019-02-12T22:20:28.714Z,99343.00
2019-02-12T22:22:58.072Z,99338.00
2019-02-12T22:25:27.497Z,99338.00
2019-02-12T22:27:56.865Z,99344.00
2019-02-12T22:30:26.909Z,99341.00
2019-02-12T22:32:56.783Z,99345.00
2019-02-12T22:35:26.150Z,99352.00
2019-02-12T22:37:55.512Z,99344.00
2019-02-12T22:40:24.927Z,99339.00
2019-02-12T22:42:54.292Z,99351.00
2019-02-12T22:45:25.766Z,99361.00
2019-02-12T22:47:55.176Z,99364.00
2019-02-12T22:50:24.562Z,99348.00
2019-02-12T22:52:53.922Z,99367.00
2019-02-12T22:55:23.715Z,99377.00
2019-02-12T22:57:53.100Z,99359.00
2019-02-12T23:00:39.238Z,99361.00
2019-02-12T23:03:09.470Z,99364.00
2019-02-12T23:05:38.828Z,99365.00
2019-02-12T23:08:08.219Z,99365.00
2019-02-12T23:10:37.564Z,99363.00
2019-02-12T23:13:06.950Z,99357.00
2019-02-12T23:15:36.766Z,99360.00
2019-02-12T23:18:06.127Z,99369.00
2019-02-12T23:20:35.485Z,99369.00
2019-02-12T23:23:04.886Z,99374.00
2019-02-12T23:25:34.253Z,99364.00
2019-02-12T23:28:03.619Z,99369.00
2019-02-12T23:30:33.030Z,99354.00
2019-02-12T23:33:02.379Z,99372.00
2019-02-12T23:35:31.822Z,99379.00
2019-02-12T23:38:01.236Z,99373.00
2019-02-12T23:40:30.611Z,99375.00
2019-02-12T23:42:59.965Z,99375.00
2019-02-12T23:45:29.349Z,99386.00
2019-02-12T23:47:58.715Z,99381.00
2019-02-12T23:50:28.081Z,99379.00
2019-02-12T23:52:57.472Z,99371.00
2019-02-12T23:55:26.865Z,99366.00
2019-02-12T23:57:56.227Z,99369.00
